Time;durP1;ratioP1;P1;durP2;ratioP2;P2;SDS_P1;SDS_P2;PMS_P1;PMS_P2;Temp;Humidity;BMP_temperature;BMP_pressure;BME280_temperature;BME280_humidity;BME280_pressure;Samples;Min_cycle;Max_cycle;Signal;HPM_P1;HPM_P2
2022/01/29 00:00:05;;;;;;;15.93;8.30;;;5.40;1.00;;;;;;5067108;28;20425;-75
2022/01/29 00:02:31;;;;;;;10.90;7.20;;;5.40;1.00;;;;;;5063349;28;20508;-75
2022/01/29 00:04:56;;;;;;;10.53;7.07;;;5.40;1.00;;;;;;5060437;28;20469;-75
2022/01/29 00:07:22;;;;;;;21.87;9.20;;;5.40;1.00;;;;;;5059674;28;20642;-75
2022/01/29 00:09:48;;;;;;;21.83;7.77;;;5.40;1.00;;;;;;5068430;28;20266;-75
2022/01/29 00:12:14;;;;;;;11.40;7.70;;;5.50;1.00;;;;;;5067008;28;20194;-74
2022/01/29 00:14:40;;;;;;;21.83;9.10;;;5.50;1.00;;;;;;5064169;28;20417;-75
2022/01/29 00:17:05;;;;;;;21.10;8.43;;;5.50;1.00;;;;;;5077649;28;20610;-75
2022/01/29 00:19:31;;;;;;;26.53;8.73;;;5.50;1.00;;;;;;5063911;28;20531;-75
2022/01/29 00:22:03;;;;;;;17.40;6.80;;;5.50;1.00;;;;;;5067448;28;20519;-74
2022/01/29 00:24:30;;;;;;;13.80;7.00;;;5.40;1.00;;;;;;5070872;28;20419;-75
2022/01/29 00:26:56;;;;;;;19.60;7.17;;;5.40;1.00;;;;;;5067642;28;20413;-74
2022/01/29 00:29:22;;;;;;;11.90;6.90;;;5.50;1.00;;;;;;5063172;28;20432;-75
2022/01/29 00:31:49;;;;;;;15.67;6.67;;;5.50;1.00;;;;;;5068690;28;20202;-75
2022/01/29 00:34:14;;;;;;;18.00;7.07;;;5.50;1.00;;;;;;5057540;28;20437;-75
2022/01/29 00:36:45;;;;;;;14.53;6.70;;;5.50;1.00;;;;;;5057169;28;20434;-75
2022/01/29 00:39:22;;;;;;;16.77;8.13;;;5.50;1.00;;;;;;5057936;28;20618;-75
2022/01/29 00:41:51;;;;;;;21.23;7.63;;;5.60;1.00;;;;;;5063055;28;20460;-75
2022/01/29 00:44:21;;;;;;;18.43;6.83;;;5.60;1.00;;;;;;5050831;28;20482;-75
2022/01/29 00:46:47;;;;;;;22.43;7.13;;;5.60;1.00;;;;;;5063462;28;20496;-75
2022/01/29 00:49:21;;;;;;;11.10;6.43;;;5.60;1.00;;;;;;5069760;28;20500;-75
2022/01/29 00:51:57;;;;;;;15.00;6.30;;;5.60;1.00;;;;;;5056200;28;20535;-74
2022/01/29 00:54:24;;;;;;;7.57;5.93;;;5.60;1.00;;;;;;5056960;28;20412;-75
2022/01/29 00:56:51;;;;;;;20.13;8.10;;;5.70;1.00;;;;;;5069697;28;20959;-74
2022/01/29 00:59:17;;;;;;;16.97;6.80;;;5.70;1.00;;;;;;5058345;28;20426;-75
2022/01/29 01:01:43;;;;;;;22.80;7.03;;;5.70;1.00;;;;;;5056347;28;20417;-75
2022/01/29 01:04:08;;;;;;;21.23;6.60;;;5.80;1.00;;;;;;5066901;28;20179;-75
2022/01/29 01:06:45;;;;;;;14.50;7.33;;;5.70;1.00;;;;;;5071034;28;20217;-75
2022/01/29 01:09:11;;;;;;;13.60;6.87;;;5.70;1.00;;;;;;5060029;28;20182;-75
2022/01/29 01:11:37;;;;;;;11.47;6.23;;;5.80;1.00;;;;;;5062736;28;20515;-75
2022/01/29 01:14:02;;;;;;;14.57;6.80;;;5.80;1.00;;;;;;5058557;28;20267;-74
2022/01/29 01:16:28;;;;;;;11.50;5.97;;;5.80;1.00;;;;;;5069674;28;20738;-75
2022/01/29 01:18:57;;;;;;;13.10;6.67;;;5.80;1.00;;;;;;5068096;28;20795;-74
2022/01/29 01:21:39;;;;;;;12.80;6.50;;;5.90;1.00;;;;;;5056824;28;20190;-75
2022/01/29 01:24:22;;;;;;;11.50;7.20;;;5.90;1.00;;;;;;5056266;28;20398;-75
2022/01/29 01:26:57;;;;;;;14.70;6.13;;;5.80;1.00;;;;;;5056085;28;20414;-75
2022/01/29 01:29:23;;;;;;;12.20;6.37;;;5.80;1.00;;;;;;5056108;28;20456;-75
2022/01/29 01:31:57;;;;;;;13.50;7.23;;;5.80;1.00;;;;;;5059988;28;20434;-74
2022/01/29 01:34:25;;;;;;;14.03;6.83;;;5.80;1.00;;;;;;5074122;28;20803;-75
2022/01/29 01:37:08;;;;;;;12.00;6.30;;;5.90;1.00;;;;;;5076044;28;20449;-75
2022/01/29 01:39:41;;;;;;;10.80;5.73;;;5.90;1.00;;;;;;5045435;28;20410;-75
2022/01/29 01:42:09;;;;;;;10.27;6.27;;;5.80;1.00;;;;;;5055752;28;20421;-75
2022/01/29 01:44:45;;;;;;;13.90;6.63;;;5.80;1.00;;;;;;5055959;28;20398;-75
2022/01/29 01:47:11;;;;;;;11.43;5.93;;;5.90;1.00;;;;;;5055832;28;20413;-74
2022/01/29 01:49:40;;;;;;;10.90;6.50;;;5.90;1.00;;;;;;5066937;28;20467;-75
2022/01/29 01:52:10;;;;;;;9.30;6.00;;;5.80;1.00;;;;;;5056073;28;20978;-75
2022/01/29 01:54:41;;;;;;;10.00;6.23;;;5.80;1.00;;;;;;5055347;28;20434;-75
2022/01/29 01:57:07;;;;;;;11.53;6.20;;;5.80;1.00;;;;;;5057053;28;20450;-75
2022/01/29 01:59:33;;;;;;;15.87;6.10;;;5.70;1.00;;;;;;5067796;28;20417;-75
2022/01/29 02:01:59;;;;;;;10.37;4.70;;;5.80;1.00;;;;;;5054978;28;20430;-74
2022/01/29 02:04:25;;;;;;;10.40;4.93;;;5.80;1.00;;;;;;5055630;28;20422;-74
2022/01/29 02:06:53;;;;;;;14.63;5.70;;;5.80;1.00;;;;;;5060954;28;20424;-75
2022/01/29 02:09:24;;;;;;;6.83;4.83;;;5.70;1.00;;;;;;5062795;28;20180;-75
2022/01/29 02:11:54;;;;;;;8.47;5.53;;;5.70;1.00;;;;;;5058660;28;20473;-74
2022/01/29 02:14:34;;;;;;;9.20;5.00;;;5.70;1.00;;;;;;5061106;28;20454;-75
2022/01/29 02:17:04;;;;;;;12.90;4.97;;;5.60;1.00;;;;;;5064380;28;20465;-74
2022/01/29 02:19:33;;;;;;;7.57;4.17;;;5.60;1.00;;;;;;5059284;28;20419;-74
2022/01/29 02:22:04;;;;;;;16.50;5.60;;;5.60;1.00;;;;;;5055119;28;20417;-75
2022/01/29 02:24:30;;;;;;;15.23;5.00;;;5.60;1.00;;;;;;5055169;28;20867;-75
2022/01/29 02:26:56;;;;;;;9.30;4.83;;;5.60;1.00;;;;;;5061835;28;20959;-75
2022/01/29 02:29:22;;;;;;;13.03;5.50;;;5.60;1.00;;;;;;5068252;28;20447;-74
2022/01/29 02:31:56;;;;;;;9.13;5.40;;;5.60;1.00;;;;;;5054555;28;20877;-74
2022/01/29 02:34:25;;;;;;;9.23;5.10;;;5.60;1.00;;;;;;5074119;28;20178;-74
2022/01/29 02:36:52;;;;;;;15.23;5.70;;;5.60;1.00;;;;;;5075248;28;20477;-75
2022/01/29 02:39:22;;;;;;;13.47;6.73;;;5.60;1.00;;;;;;5065155;28;20422;-75
2022/01/29 02:42:03;;;;;;;12.83;6.50;;;5.60;1.00;;;;;;5053489;28;20528;-75
2022/01/29 02:44:30;;;;;;;14.53;5.00;;;5.50;1.00;;;;;;5051512;28;20413;-75
2022/01/29 02:47:08;;;;;;;9.00;5.50;;;5.50;1.00;;;;;;5061569;28;20418;-75
2022/01/29 02:49:39;;;;;;;8.30;5.13;;;5.50;1.00;;;;;;5069067;28;20460;-74
2022/01/29 02:52:05;;;;;;;9.87;5.40;;;5.50;1.00;;;;;;5054140;28;20894;-75
2022/01/29 02:54:34;;;;;;;10.67;5.17;;;5.60;1.00;;;;;;5054547;28;20485;-75
2022/01/29 02:57:00;;;;;;;9.03;5.57;;;5.60;1.00;;;;;;5052169;28;20458;-74
2022/01/29 02:59:27;;;;;;;12.10;5.40;;;5.60;1.00;;;;;;5054538;28;20830;-75
2022/01/29 03:01:57;;;;;;;12.93;6.00;;;5.60;1.00;;;;;;5053807;28;20482;-75
2022/01/29 03:04:23;;;;;;;13.63;7.13;;;5.50;1.00;;;;;;5054183;28;20408;-75
2022/01/29 03:06:57;;;;;;;14.23;4.17;;;5.50;1.00;;;;;;5054710;28;20402;-75
2022/01/29 03:09:23;;;;;;;10.83;6.00;;;5.40;1.00;;;;;;5054204;28;20626;-75
2022/01/29 03:11:48;;;;;;;16.80;5.93;;;5.40;1.00;;;;;;5067582;28;20410;-74
2022/01/29 03:14:15;;;;;;;9.93;6.07;;;;;;;;;;5067292;28;20209;-75
2022/01/29 03:16:41;;;;;;;13.47;6.10;;;;;;;;;;5061038;28;20215;-75
2022/01/29 03:19:06;;;;;;;7.73;4.80;;;5.40;1.00;;;;;;5074147;28;20397;-75
2022/01/29 03:21:32;;;;;;;8.20;5.37;;;5.40;1.00;;;;;;5054448;28;20476;-74
2022/01/29 03:24:03;;;;;;;10.30;5.77;;;5.40;1.00;;;;;;5061301;28;20633;-75
2022/01/29 03:26:39;;;;;;;13.63;5.87;;;5.40;1.00;;;;;;5041399;28;20187;-75
2022/01/29 03:29:09;;;;;;;11.00;5.60;;;5.40;1.00;;;;;;5055686;28;20421;-75
2022/01/29 03:31:35;;;;;;;15.63;7.47;;;5.40;1.00;;;;;;5064509;28;20977;-74
2022/01/29 03:34:03;;;;;;;18.80;6.50;;;5.50;1.00;;;;;;5056188;28;20506;-74
2022/01/29 03:36:29;;;;;;;10.13;5.47;;;5.50;1.00;;;;;;5074051;28;20663;-74
2022/01/29 03:38:57;;;;;;;12.77;6.00;;;5.50;1.00;;;;;;5057415;28;20505;-75
2022/01/29 03:41:27;;;;;;;10.40;5.33;;;5.50;1.00;;;;;;5053832;28;20548;-75
2022/01/29 03:43:55;;;;;;;9.97;5.40;;;5.40;1.00;;;;;;5054995;28;20434;-75
2022/01/29 03:46:21;;;;;;;7.97;4.73;;;5.50;1.00;;;;;;5064859;28;20414;-75
2022/01/29 03:48:46;;;;;;;10.20;5.57;;;5.50;1.00;;;;;;5060365;28;20425;-74
2022/01/29 03:51:15;;;;;;;15.40;6.07;;;5.50;1.00;;;;;;5072241;28;20191;-75
2022/01/29 03:53:41;;;;;;;13.97;5.50;;;5.40;1.00;;;;;;5060083;28;20205;-75
2022/01/29 03:56:10;;;;;;;7.47;5.90;;;5.40;1.00;;;;;;5073513;28;20924;-75
2022/01/29 03:58:35;;;;;;;11.07;5.37;;;5.40;1.00;;;;;;5075704;28;20527;-75
2022/01/29 04:01:15;;;;;;;10.07;6.40;;;5.40;1.00;;;;;;5073593;28;20414;-75
2022/01/29 04:03:45;;;;;;;10.13;5.00;;;5.50;1.00;;;;;;5069930;28;20178;-75
2022/01/29 04:06:11;;;;;;;12.30;6.77;;;5.50;1.00;;;;;;5060213;28;20422;-74
2022/01/29 04:08:45;;;;;;;11.27;5.50;;;5.50;1.00;;;;;;5065210;28;20927;-75
2022/01/29 04:11:15;;;;;;;10.10;5.53;;;5.60;1.00;;;;;;5060015;28;20893;-74
2022/01/29 04:13:45;;;;;;;15.83;5.20;;;5.50;1.00;;;;;;5064143;28;20424;-75
2022/01/29 04:16:15;;;;;;;9.93;5.37;;;5.50;1.00;;;;;;5053436;28;20434;-74
2022/01/29 04:18:42;;;;;;;13.63;6.40;;;5.40;1.00;;;;;;5054911;28;20441;-75
2022/01/29 04:21:08;;;;;;;11.57;5.93;;;5.50;1.00;;;;;;5067022;28;20414;-74
2022/01/29 04:23:34;;;;;;;11.70;5.37;;;5.40;1.00;;;;;;5052863;28;20509;-75
2022/01/29 04:26:02;;;;;;;16.83;5.57;;;5.40;1.00;;;;;;5059992;28;20428;-75
2022/01/29 04:28:39;;;;;;;11.57;4.20;;;5.40;1.00;;;;;;5053399;28;20441;-75
2022/01/29 04:31:15;;;;;;;2.17;2.00;;;5.40;1.00;;;;;;5070999;28;20425;-75
2022/01/29 04:33:41;;;;;;;8.27;5.43;;;5.40;1.00;;;;;;5059725;28;20558;-75
2022/01/29 04:36:08;;;;;;;9.10;5.37;;;5.50;1.00;;;;;;5033447;28;20557;-75
2022/01/29 04:38:34;;;;;;;10.77;5.27;;;5.50;1.00;;;;;;5060242;28;20618;-75
2022/01/29 04:41:03;;;;;;;15.10;5.20;;;5.50;1.00;;;;;;5066580;28;20409;-74
2022/01/29 04:43:39;;;;;;;9.73;5.23;;;5.60;1.00;;;;;;5052245;28;20521;-74
2022/01/29 04:46:05;;;;;;;8.90;4.50;;;5.50;1.00;;;;;;5036032;28;20436;-75
2022/01/29 04:48:33;;;;;;;14.83;5.33;;;5.50;1.00;;;;;;5066546;28;20768;-75
2022/01/29 04:51:03;;;;;;;9.10;5.60;;;5.50;1.00;;;;;;5053390;28;20190;-74
2022/01/29 04:53:33;;;;;;;11.57;4.40;;;5.60;1.00;;;;;;5067494;28;20532;-75
2022/01/29 04:56:15;;;;;;;9.83;5.00;;;5.50;1.00;;;;;;5066078;28;20450;-75
2022/01/29 04:58:41;;;;;;;6.80;4.30;;;5.60;1.00;;;;;;5056668;28;20418;-75
2022/01/29 05:01:09;;;;;;;8.03;5.20;;;5.60;1.00;;;;;;5056705;28;20391;-75
2022/01/29 05:03:39;;;;;;;9.80;5.73;;;5.60;1.00;;;;;;5070075;28;20426;-75
2022/01/29 05:06:09;;;;;;;12.70;5.50;;;5.70;1.00;;;;;;5069749;28;20871;-75
2022/01/29 05:08:40;;;;;;;8.53;4.53;;;5.70;1.00;;;;;;5052085;28;20988;-75
2022/01/29 05:11:07;;;;;;;9.50;4.97;;;5.60;1.00;;;;;;5070396;28;20424;-75
2022/01/29 05:13:34;;;;;;;7.10;3.97;;;5.60;1.00;;;;;;5068926;28;20990;-75
2022/01/29 05:16:33;;;;;;;5.47;3.50;;;5.60;1.00;;;;;;5060237;28;20453;-75
2022/01/29 05:27:39;;;;;;;6.50;3.77;;;5.50;1.00;;;;;;5053908;28;20491;-74
2022/01/29 05:30:05;;;;;;;8.50;4.30;;;5.50;1.00;;;;;;5045436;28;20438;-75
2022/01/29 05:32:33;;;;;;;2.70;2.47;;;5.50;1.00;;;;;;5058188;28;20433;-75
2022/01/29 05:35:04;;;;;;;5.57;3.47;;;5.50;1.00;;;;;;5072799;28;20421;-74
2022/01/29 05:37:33;;;;;;;10.93;4.93;;;5.50;1.00;;;;;;5051553;28;20458;-75
2022/01/29 05:40:09;;;;;;;8.33;4.27;;;5.60;1.00;;;;;;5045689;28;20995;-75
2022/01/29 05:42:35;;;;;;;12.03;4.70;;;5.60;1.00;;;;;;5040540;28;20525;-75
2022/01/29 05:45:03;;;;;;;4.33;3.43;;;5.60;1.00;;;;;;5054840;28;20426;-75
2022/01/29 05:47:35;;;;;;;6.43;3.90;;;5.60;1.00;;;;;;5033907;28;20252;-75
2022/01/29 05:50:04;;;;;;;9.23;4.30;;;5.50;1.00;;;;;;5047867;28;20989;-75
2022/01/29 05:52:30;;;;;;;20.67;4.40;;;5.50;1.00;;;;;;5045937;28;20427;-75
2022/01/29 05:54:57;;;;;;;3.93;2.50;;;5.60;1.00;;;;;;5049703;28;20575;-74
2022/01/29 05:57:23;;;;;;;5.93;4.33;;;5.60;1.00;;;;;;5045404;28;20211;-75
2022/01/29 05:59:49;;;;;;;9.63;5.20;;;;;;;;;;5049760;28;20414;-74
2022/01/29 06:02:15;;;;;;;7.47;4.27;;;5.50;1.00;;;;;;5055156;28;20506;-74
2022/01/29 06:04:41;;;;;;;6.60;3.17;;;5.50;1.00;;;;;;5056697;28;20425;-75
2022/01/29 06:07:06;;;;;;;8.77;4.57;;;5.50;1.00;;;;;;5067414;28;20419;-74
2022/01/29 06:09:32;;;;;;;10.30;5.03;;;5.50;1.00;;;;;;5055578;28;20249;-74
2022/01/29 06:11:58;;;;;;;14.60;5.70;;;5.40;1.00;;;;;;5055392;28;20190;-75
2022/01/29 06:14:23;;;;;;;10.63;4.30;;;5.40;1.00;;;;;;5056251;28;20180;-75
2022/01/29 06:16:49;;;;;;;7.20;4.30;;;5.40;1.00;;;;;;5067912;28;20551;-75
2022/01/29 06:19:14;;;;;;;11.60;4.17;;;5.30;1.00;;;;;;5069218;28;20705;-74
2022/01/29 06:21:41;;;;;;;10.00;4.93;;;;;;;;;;5073474;28;20160;-74
2022/01/29 06:24:09;;;;;;;3.93;2.47;;;5.40;1.00;;;;;;5054902;28;20515;-75
2022/01/29 06:26:35;;;;;;;11.93;4.57;;;5.40;1.00;;;;;;5055208;28;20498;-74
2022/01/29 06:29:04;;;;;;;5.77;3.97;;;5.40;1.00;;;;;;5054919;28;20454;-75
2022/01/29 06:31:30;;;;;;;7.77;4.17;;;5.30;1.00;;;;;;5057071;28;20442;-75
2022/01/29 06:33:56;;;;;;;5.80;3.67;;;;;;;;;;5056538;28;20429;-75
2022/01/29 06:36:33;;;;;;;7.87;4.13;;;5.40;1.00;;;;;;5075013;28;20187;-75
2022/01/29 06:38:59;;;;;;;6.80;4.67;;;5.40;1.00;;;;;;5061965;28;20413;-74
2022/01/29 06:41:25;;;;;;;9.20;5.40;;;5.40;1.00;;;;;;5064718;28;20421;-74
2022/01/29 06:43:57;;;;;;;5.77;4.00;;;5.40;1.00;;;;;;5054343;28;20366;-75
2022/01/29 06:46:27;;;;;;;10.00;4.10;;;5.30;1.00;;;;;;5065539;28;20186;-75
2022/01/29 06:48:53;;;;;;;10.20;4.40;;;5.30;1.00;;;;;;5056513;28;20459;-75
2022/01/29 06:51:19;;;;;;;9.40;4.93;;;5.30;1.00;;;;;;5054465;28;20489;-75
2022/01/29 06:53:45;;;;;;;8.03;4.10;;;5.30;1.00;;;;;;5054140;28;20257;-74
2022/01/29 06:56:11;;;;;;;6.23;3.90;;;5.30;1.00;;;;;;5054550;28;20501;-74
2022/01/29 06:58:37;;;;;;;13.07;4.60;;;5.30;1.00;;;;;;5058750;28;20527;-75
2022/01/29 07:01:03;;;;;;;10.13;4.30;;;5.30;1.00;;;;;;5063288;28;20304;-75
2022/01/29 07:03:33;;;;;;;6.20;3.60;;;5.30;1.00;;;;;;5055202;28;20180;-75
2022/01/29 07:05:59;;;;;;;11.73;3.83;;;5.30;1.00;;;;;;5053959;28;20438;-75
2022/01/29 07:08:39;;;;;;;11.30;4.70;;;5.30;1.00;;;;;;5057831;28;20495;-74
2022/01/29 07:11:09;;;;;;;7.30;3.23;;;5.30;1.00;;;;;;5067604;28;20166;-75
2022/01/29 07:13:36;;;;;;;9.63;4.63;;;5.30;1.00;;;;;;5061923;28;20442;-75
2022/01/29 07:16:02;;;;;;;6.30;4.30;;;5.20;1.00;;;;;;5056012;28;20422;-75
2022/01/29 07:18:27;;;;;;;8.10;4.00;;;5.20;1.00;;;;;;5066364;28;20426;-75
2022/01/29 07:21:03;;;;;;;7.63;4.20;;;5.20;1.00;;;;;;5053919;28;20505;-75
2022/01/29 07:23:29;;;;;;;5.80;3.40;;;5.20;1.00;;;;;;5054059;28;20233;-75
2022/01/29 07:25:57;;;;;;;9.17;4.60;;;5.10;1.00;;;;;;5054249;28;20421;-75
2022/01/29 07:28:27;;;;;;;9.83;5.00;;;5.20;1.00;;;;;;5054854;28;20190;-75
2022/01/29 07:30:57;;;;;;;7.10;4.67;;;5.10;1.00;;;;;;5069763;28;20409;-75
2022/01/29 07:33:28;;;;;;;6.47;3.70;;;5.10;1.00;;;;;;5073960;28;20397;-75
2022/01/29 07:35:57;;;;;;;8.33;3.73;;;5.10;1.00;;;;;;5060046;28;20931;-75
2022/01/29 07:38:27;;;;;;;14.23;4.70;;;5.10;1.00;;;;;;5074141;28;20390;-74
2022/01/29 07:40:57;;;;;;;7.50;4.30;;;5.10;1.00;;;;;;5068516;28;20418;-74
2022/01/29 07:43:23;;;;;;;10.90;5.63;;;5.10;1.00;;;;;;5053838;28;20897;-75
2022/01/29 07:45:49;;;;;;;6.80;4.37;;;5.10;1.00;;;;;;5057099;28;20516;-74
2022/01/29 07:48:27;;;;;;;9.17;5.20;;;5.20;1.00;;;;;;5066457;28;20181;-74
2022/01/29 07:50:57;;;;;;;5.00;3.10;;;5.10;1.00;;;;;;5063670;28;20203;-75
2022/01/29 07:53:23;;;;;;;11.20;5.80;;;5.10;1.00;;;;;;5068917;28;20875;-75
2022/01/29 07:55:49;;;;;;;10.67;5.13;;;5.20;1.00;;;;;;5068668;28;20435;-74
2022/01/29 07:58:14;;;;;;;8.37;4.53;;;5.20;1.00;;;;;;5059859;28;20172;-74
2022/01/29 08:00:40;;;;;;;9.00;4.83;;;5.30;1.00;;;;;;5061833;28;20171;-74
2022/01/29 08:03:09;;;;;;;7.30;4.90;;;5.30;1.00;;;;;;5067210;28;20182;-74
2022/01/29 08:05:39;;;;;;;7.30;4.83;;;5.30;1.00;;;;;;5061457;28;20191;-75
2022/01/29 08:08:05;;;;;;;8.20;4.60;;;5.30;1.00;;;;;;5064653;28;20810;-74
2022/01/29 08:10:31;;;;;;;5.90;4.47;;;5.30;1.00;;;;;;5073873;28;20405;-74
2022/01/29 08:12:58;;;;;;;6.80;4.57;;;5.40;1.00;;;;;;5073519;28;20648;-73
2022/01/29 08:15:23;;;;;;;4.70;3.33;;;5.40;1.00;;;;;;5064345;28;20426;-74
2022/01/29 08:17:49;;;;;;;10.43;5.17;;;5.40;1.00;;;;;;5058293;28;20464;-75
2022/01/29 08:20:21;;;;;;;16.33;3.93;;;5.40;1.00;;;;;;5055186;28;20185;-74
2022/01/29 08:22:58;;;;;;;5.70;3.80;;;5.50;1.00;;;;;;5036822;28;20168;-74
2022/01/29 08:25:40;;;;;;;2.60;2.40;;;5.50;1.00;;;;;;5064567;28;20558;-75
2022/01/29 08:28:23;;;;;;;7.53;4.97;;;5.50;1.00;;;;;;5066498;28;20410;-75
2022/01/29 08:30:49;;;;;;;3.17;2.70;;;5.50;1.00;;;;;;5071518;28;20477;-74
2022/01/29 08:33:18;;;;;;;8.50;3.37;;;5.50;1.00;;;;;;5062275;28;20402;-74
2022/01/29 08:35:46;;;;;;;9.47;3.00;;;5.60;1.00;;;;;;5064681;28;20946;-75
2022/01/29 08:38:15;;;;;;;7.03;4.20;;;5.60;1.00;;;;;;5067121;28;20418;-74
2022/01/29 08:40:41;;;;;;;4.47;3.20;;;5.70;1.00;;;;;;5061025;28;20726;-74
2022/01/29 08:43:09;;;;;;;5.83;4.10;;;5.80;1.00;;;;;;5075813;28;20429;-74
2022/01/29 08:45:40;;;;;;;7.37;2.80;;;5.80;1.00;;;;;;5063486;28;20421;-74
2022/01/29 08:48:05;;;;;;;7.50;3.77;;;5.90;1.00;;;;;;5063959;28;20770;-74
2022/01/29 08:50:34;;;;;;;4.10;2.90;;;5.80;1.00;;;;;;5056847;28;20409;-74
2022/01/29 08:52:59;;;;;;;5.40;3.40;;;5.80;1.00;;;;;;5068459;28;20638;-74
2022/01/29 08:55:36;;;;;;;4.20;2.63;;;5.90;1.00;;;;;;5058745;28;20417;-74
2022/01/29 08:58:08;;;;;;;4.93;3.37;;;5.90;1.00;;;;;;5063105;28;20191;-74
2022/01/29 09:00:41;;;;;;;3.53;3.23;;;5.90;1.00;;;;;;5051661;28;20409;-74
2022/01/29 09:03:07;;;;;;;4.90;3.03;;;6.00;1.00;;;;;;5061735;28;20734;-74
2022/01/29 09:05:34;;;;;;;6.73;3.50;;;;;;;;;;5062013;28;20524;-74
2022/01/29 09:08:27;;;;;;;4.73;3.70;;;6.00;1.00;;;;;;5055172;28;20508;-74
2022/01/29 09:10:57;;;;;;;6.23;3.00;;;5.90;1.00;;;;;;5056608;28;20923;-75
2022/01/29 09:13:27;;;;;;;5.07;2.43;;;5.90;1.00;;;;;;5060509;28;20414;-74
2022/01/29 09:15:58;;;;;;;3.93;2.67;;;5.90;1.00;;;;;;5066183;28;20444;-75
2022/01/29 09:18:24;;;;;;;5.53;3.10;;;;;;;;;;5044197;28;20429;-75
2022/01/29 09:20:51;;;;;;;2.07;1.97;;;5.90;1.00;;;;;;5069745;28;20405;-74
2022/01/29 09:23:16;;;;;;;5.77;2.93;;;6.00;1.00;;;;;;5056477;28;20477;-78
2022/01/29 09:29:04;;;;;;;5.60;1.53;;;6.00;1.00;;;;;;5071717;28;20189;-78
2022/01/29 09:31:30;;;;;;;4.03;2.30;;;;;;;;;;5067471;28;20485;-75
2022/01/29 09:33:57;;;;;;;3.23;2.30;;;5.90;1.00;;;;;;5054721;28;20199;-75
2022/01/29 09:36:23;;;;;;;3.57;1.50;;;5.90;1.00;;;;;;5066101;28;20529;-75
2022/01/29 09:38:48;;;;;;;1.77;1.67;;;5.90;1.00;;;;;;5058109;28;20470;-75
2022/01/29 09:41:18;;;;;;;2.67;1.50;;;5.80;1.00;;;;;;5069503;28;20171;-75
2022/01/29 09:43:45;;;;;;;1.80;1.33;;;5.90;1.00;;;;;;5073837;28;20153;-75
2022/01/29 09:46:16;;;;;;;1.40;1.20;;;5.90;1.00;;;;;;5063921;28;20409;-75
2022/01/29 09:48:53;;;;;;;3.17;1.70;;;5.90;1.00;;;;;;5069555;28;20996;-75
2022/01/29 09:51:22;;;;;;;1.23;1.13;;;6.00;1.00;;;;;;5063783;28;20417;-75
2022/01/29 09:53:57;;;;;;;1.20;0.90;;;6.00;1.00;;;;;;5070069;28;20460;-76
2022/01/29 09:56:28;;;;;;;1.10;0.70;;;6.00;1.00;;;;;;5065161;28;20937;-75
2022/01/29 09:59:04;;;;;;;1.17;1.17;;;6.00;1.00;;;;;;5062202;28;20408;-75
2022/01/29 10:01:29;;;;;;;0.80;0.80;;;5.90;1.00;;;;;;5062075;28;20710;-74
2022/01/29 10:04:03;;;;;;;0.93;0.93;;;5.90;1.00;;;;;;5068022;28;20402;-75
2022/01/29 10:06:35;;;;;;;1.47;1.07;;;6.00;1.00;;;;;;5069008;28;20649;-75
2022/01/29 10:09:09;;;;;;;1.23;1.13;;;6.10;1.00;;;;;;5060393;28;20499;-75
2022/01/29 10:11:40;;;;;;;1.70;1.07;;;6.10;1.00;;;;;;5061919;28;20421;-76
2022/01/29 10:18:03;;;;;;;1.20;1.10;;;6.20;1.00;;;;;;5052462;28;20485;-76
2022/01/29 10:24:12;;;;;;;0.63;0.63;;;6.30;1.00;;;;;;5057367;28;20427;-76
2022/01/29 10:26:40;;;;;;;1.00;0.87;;;6.20;1.00;;;;;;5049542;28;20405;-75
2022/01/29 10:29:16;;;;;;;1.40;1.30;;;6.20;1.00;;;;;;5070835;28;20757;-75
2022/01/29 10:31:53;;;;;;;1.10;1.10;;;6.30;1.00;;;;;;5072686;28;20440;-74
2022/01/29 10:34:39;;;;;;;2.30;1.57;;;6.30;1.00;;;;;;5049796;28;20796;-75
2022/01/29 10:37:24;;;;;;;1.00;0.97;;;6.30;1.00;;;;;;5035044;28;20447;-75
2022/01/29 10:40:24;;;;;;;1.33;1.23;;;6.40;1.00;;;;;;5055849;28;20479;-76
2022/01/29 10:43:04;;;;;;;1.90;1.20;;;6.40;1.00;;;;;;5035047;28;20387;-76
2022/01/29 10:45:35;;;;;;;3.10;1.20;;;6.50;1.00;;;;;;5052045;28;20402;-76
2022/01/29 10:48:03;;;;;;;0.43;0.43;;;6.50;1.00;;;;;;5059391;28;20461;-76
2022/01/29 10:50:39;;;;;;;1.17;1.07;;;6.40;1.00;;;;;;5055116;28;20431;-76
2022/01/29 10:53:25;;;;;;;1.20;1.20;;;6.40;1.00;;;;;;5054922;28;20395;-76
2022/01/29 10:56:21;;;;;;;1.17;0.90;;;6.40;1.00;;;;;;5055199;28;20777;-75
2022/01/29 10:58:50;;;;;;;2.83;1.20;;;6.30;1.00;;;;;;5061456;28;20423;-75
2022/01/29 11:01:23;;;;;;;1.03;1.03;;;6.40;1.00;;;;;;5067858;28;20409;-75
2022/01/29 11:03:54;;;;;;;1.10;1.00;;;6.50;1.00;;;;;;5062659;28;20424;-75
2022/01/29 11:06:26;;;;;;;1.23;1.23;;;6.60;1.00;;;;;;5069490;28;20429;-75
2022/01/29 11:08:58;;;;;;;0.80;0.80;;;6.60;1.00;;;;;;5061386;28;20497;-75
2022/01/29 11:11:35;;;;;;;2.60;1.20;;;6.60;1.00;;;;;;5054683;28;20398;-75
2022/01/29 11:14:12;;;;;;;1.57;1.47;;;6.60;1.00;;;;;;5054208;28;20410;-75
2022/01/29 11:16:58;;;;;;;1.23;1.13;;;6.70;1.00;;;;;;5060627;28;20518;-76
2022/01/29 11:19:40;;;;;;;1.30;1.10;;;6.70;1.00;;;;;;5058487;28;20917;-76
2022/01/29 11:22:08;;;;;;;0.93;0.83;;;6.70;1.00;;;;;;5062921;28;20501;-76
2022/01/29 11:24:42;;;;;;;1.20;1.00;;;6.70;1.00;;;;;;5059548;28;20416;-75
2022/01/29 11:27:26;;;;;;;0.90;0.90;;;6.80;1.00;;;;;;5060805;28;20513;-75
2022/01/29 11:30:10;;;;;;;1.23;1.20;;;6.80;1.00;;;;;;5069073;28;20913;-75
2022/01/29 11:32:42;;;;;;;1.53;1.10;;;6.90;1.00;;;;;;5058033;28;20776;-74
2022/01/29 11:35:28;;;;;;;0.87;0.87;;;6.80;1.00;;;;;;5074195;28;20393;-75
2022/01/29 11:38:04;;;;;;;1.27;1.17;;;6.90;1.00;;;;;;5036765;28;20438;-75
2022/01/29 11:41:06;;;;;;;0.67;0.67;;;7.00;1.00;;;;;;5070542;28;20820;-75
2022/01/29 11:44:23;;;;;;;0.83;0.83;;;6.90;1.00;;;;;;4974805;28;20479;-75
2022/01/29 11:47:24;;;;;;;1.50;1.10;;;7.00;1.00;;;;;;4981237;28;20482;-76
2022/01/29 11:50:10;;;;;;;1.30;0.87;;;7.10;1.00;;;;;;5000377;28;22148;-74
2022/01/29 11:53:03;;;;;;;0.90;0.90;;;7.20;1.00;;;;;;4991910;28;20437;-75
2022/01/29 11:55:53;;;;;;;0.80;0.80;;;7.30;1.00;;;;;;4997784;28;20762;-75
2022/01/29 11:58:45;;;;;;;1.00;0.90;;;7.40;1.00;;;;;;4996754;28;20814;-75
2022/01/29 12:01:31;;;;;;;1.97;1.30;;;7.50;1.00;;;;;;5011569;28;20450;-75
2022/01/29 12:03:57;;;;;;;1.77;1.13;;;7.40;1.00;;;;;;4974059;28;20410;-76
2022/01/29 12:06:26;;;;;;;1.17;1.07;;;7.40;1.00;;;;;;5009205;28;20993;-74
2022/01/29 12:09:03;;;;;;;0.80;0.80;;;7.20;1.00;;;;;;5017816;28;20424;-74
2022/01/29 12:11:29;;;;;;;2.57;1.00;;;7.20;1.00;;;;;;5015609;28;20508;-74
2022/01/29 12:14:16;;;;;;;0.93;0.80;;;7.10;1.00;;;;;;4998727;28;20503;-75
2022/01/29 12:16:57;;;;;;;1.20;1.10;;;7.00;1.00;;;;;;5016135;28;20622;-74
2022/01/29 12:19:43;;;;;;;0.73;0.73;;;7.00;1.00;;;;;;5066639;28;20429;-74
2022/01/29 12:22:12;;;;;;;4.63;1.10;;;6.90;1.00;;;;;;5068060;28;20505;-74
2022/01/29 12:24:56;;;;;;;1.30;1.20;;;6.90;1.00;;;;;;5073572;28;20826;-74
2022/01/29 12:27:23;;;;;;;1.20;1.20;;;7.00;1.00;;;;;;5062014;28;20417;-75
2022/01/29 12:29:52;;;;;;;2.77;1.53;;;6.80;1.00;;;;;;5071693;28;20470;-76
2022/01/29 12:32:21;;;;;;;1.00;1.00;;;6.70;1.00;;;;;;5065138;28;20429;-74
2022/01/29 12:34:54;;;;;;;1.10;1.00;;;6.60;1.00;;;;;;5059860;28;20763;-74
2022/01/29 12:37:27;;;;;;;0.97;0.97;;;6.60;1.00;;;;;;5063028;28;20448;-74
2022/01/29 12:40:20;;;;;;;0.70;0.70;;;6.70;1.00;;;;;;5075853;28;20424;-75
2022/01/29 12:42:56;;;;;;;1.57;1.00;;;6.70;1.00;;;;;;5076056;28;20428;-74
2022/01/29 12:45:24;;;;;;;1.20;1.20;;;6.70;1.00;;;;;;5066023;28;20509;-74
2022/01/29 12:48:18;;;;;;;1.17;1.13;;;6.70;1.00;;;;;;5059930;28;20451;-74
2022/01/29 12:50:46;;;;;;;0.80;0.80;;;6.70;1.00;;;;;;5063852;28;20938;-75
2022/01/29 12:53:39;;;;;;;0.60;0.60;;;6.60;1.00;;;;;;5065954;28;20410;-74
2022/01/29 12:56:12;;;;;;;1.13;0.80;;;6.50;1.00;;;;;;5061882;28;20829;-76
2022/01/29 12:58:45;;;;;;;1.20;1.10;;;6.30;1.00;;;;;;5059544;28;20402;-74
2022/01/29 13:01:19;;;;;;;0.80;0.80;;;6.40;1.00;;;;;;5060176;28;20904;-76
2022/01/29 13:03:46;;;;;;;0.73;0.67;;;6.40;1.00;;;;;;5061255;28;20773;-76
2022/01/29 13:06:33;;;;;;;1.47;1.37;;;6.40;1.00;;;;;;5065936;28;20987;-76
2022/01/29 13:09:18;;;;;;;0.90;0.90;;;6.30;1.00;;;;;;5057864;28;20409;-76
2022/01/29 13:11:45;;;;;;;1.00;1.00;;;6.40;1.00;;;;;;5059866;28;20398;-75
2022/01/29 13:14:17;;;;;;;1.10;1.00;;;6.40;1.00;;;;;;5071910;28;20401;-75
2022/01/29 13:16:59;;;;;;;0.80;0.80;;;6.40;1.00;;;;;;5064210;28;20475;-75
2022/01/29 13:19:27;;;;;;;1.40;1.07;;;6.40;1.00;;;;;;5061125;28;20426;-75
2022/01/29 13:22:08;;;;;;;1.30;1.20;;;6.40;1.00;;;;;;5056396;28;20398;-75
2022/01/29 13:24:50;;;;;;;1.83;0.77;;;6.40;1.00;;;;;;5069750;28;20418;-74
2022/01/29 13:27:24;;;;;;;1.57;1.20;;;6.50;1.00;;;;;;5056694;28;20513;-74
2022/01/29 13:30:02;;;;;;;1.47;0.90;;;6.50;1.00;;;;;;5052241;28;20461;-74
2022/01/29 13:32:33;;;;;;;1.33;1.20;;;6.50;1.00;;;;;;5059313;28;20840;-74
2022/01/29 13:35:21;;;;;;;1.87;1.30;;;6.40;1.00;;;;;;5065046;28;20426;-75
2022/01/29 13:37:48;;;;;;;1.33;1.17;;;6.40;1.00;;;;;;5050404;28;20461;-74
2022/01/29 13:40:20;;;;;;;1.37;1.20;;;6.50;1.00;;;;;;5062387;28;20410;-75
2022/01/29 13:43:13;;;;;;;0.90;0.90;;;6.50;1.00;;;;;;5059708;28;20450;-74
2022/01/29 13:45:58;;;;;;;0.80;0.80;;;6.50;1.00;;;;;;5054499;28;20433;-75